CheckWX is a tool to help pilots better visualize weather data.  It is not intended as a substitute for an official pre-flight weather briefing.

09:27:39 UTC

KTTN TAF
Trenton Mercer Airport
Trenton, New Jersey, USA
KTTN 170536Z 1706/1806 03009KT P6SM FEW250 FM171300 03011KT P6SM BKN030 FM171400 04011G19KT P6SM BKN030 FM180500 02011KT P6SM OVC020

Nov-17@
06:00 UTC

Nov-17 @ 06:00 UTC

Nov-17@
13:00 UTC

Nov-17 @ 13:00 UTC

KTTN 170536Z 1706/1806 03009KT P6SM FEW250
Wind
  • 030° at 9 KTS
Cloud Levels
  • Few at 25,000' AGL

Nov-17@
13:00 UTC

Nov-17 @ 13:00 UTC

Nov-17@
14:00 UTC

Nov-17 @ 14:00 UTC

FM171300 03011KT P6SM BKN030

From

From Standard forecast or significant change

Wind
  • 030° at 11 KTS
Cloud Levels
  • Broken at 3,000' AGL

Nov-17@
14:00 UTC

Nov-17 @ 14:00 UTC

Nov-18@
05:00 UTC

Nov-18 @ 05:00 UTC

FM171400 04011G19KT P6SM BKN030

From

From Standard forecast or significant change

Wind
  • 040° at 11 KTS
  • {Gusting to 19 KTS
Cloud Levels
  • Broken at 3,000' AGL

Nov-18@
05:00 UTC

Nov-18 @ 05:00 UTC

Nov-18@
06:00 UTC

Nov-18 @ 06:00 UTC

FM180500 02011KT P6SM OVC020

From

From Standard forecast or significant change

Wind
  • 020° at 11 KTS
Cloud Levels
  • Overcast at 2,000' AGL